createdAt,value
2022-12-22T00:01:52.909Z,30.30
2022-12-22T00:04:15.835Z,31.60
2022-12-22T00:06:36.708Z,32.42
2022-12-22T00:09:03.580Z,31.55
2022-12-22T00:11:29.916Z,33.92
2022-12-22T00:13:51.216Z,33.15
2022-12-22T00:16:12.001Z,32.85
2022-12-22T00:18:34.533Z,33.72
2022-12-22T00:20:57.017Z,33.25
2022-12-22T00:23:17.400Z,31.40
2022-12-22T00:25:37.994Z,32.95
2022-12-22T00:27:59.063Z,33.00
2022-12-22T00:30:21.276Z,32.70
2022-12-22T00:32:43.161Z,33.13
2022-12-22T00:35:04.261Z,32.20
2022-12-22T00:37:30.284Z,34.20
2022-12-22T00:39:51.299Z,31.30
2022-12-22T00:42:12.168Z,30.55
2022-12-22T00:44:33.388Z,31.70
2022-12-22T00:46:56.888Z,30.02
2022-12-22T00:49:18.563Z,32.38
2022-12-22T00:51:39.597Z,31.85
2022-12-22T00:54:02.113Z,32.92
2022-12-22T00:56:23.865Z,35.08
2022-12-22T00:58:44.737Z,31.42
2022-12-22T01:01:05.832Z,31.83
2022-12-22T01:03:28.807Z,28.67
2022-12-22T01:05:50.012Z,30.88
2022-12-22T01:08:11.342Z,28.35
2022-12-22T01:10:34.468Z,30.02
2022-12-22T01:12:56.860Z,29.27
2022-12-22T01:15:17.585Z,28.95
2022-12-22T01:17:38.195Z,28.30
2022-12-22T01:19:58.671Z,32.25
2022-12-22T01:22:19.168Z,28.40
2022-12-22T01:24:40.121Z,28.27
2022-12-22T01:27:02.238Z,29.33
2022-12-22T01:29:23.201Z,32.17
2022-12-22T01:31:48.017Z,30.15
2022-12-22T01:34:08.616Z,27.98
2022-12-22T01:36:29.419Z,30.02
2022-12-22T01:38:50.211Z,29.55
2022-12-22T01:41:12.254Z,27.90
2022-12-22T01:43:39.703Z,29.08
2022-12-22T01:46:00.327Z,31.55
2022-12-22T01:48:21.099Z,30.15
2022-12-22T01:50:48.150Z,28.95
2022-12-22T01:53:08.670Z,29.65
2022-12-22T01:55:33.773Z,29.63
2022-12-22T01:57:56.280Z,31.50
2022-12-22T02:00:18.683Z,30.27
2022-12-22T02:02:41.673Z,28.92
2022-12-22T02:05:05.618Z,29.33
2022-12-22T02:07:35.987Z,28.63
2022-12-22T02:10:08.629Z,29.90
2022-12-22T02:12:38.715Z,30.15
2022-12-22T02:15:09.712Z,30.40
2022-12-22T02:17:40.225Z,28.75
2022-12-22T02:20:47.396Z,28.90
2022-12-22T02:23:16.525Z,26.55
2022-12-22T02:25:44.899Z,29.15
2022-12-22T02:28:11.340Z,25.38
2022-12-22T02:30:32.945Z,24.65
2022-12-22T02:32:56.519Z,25.17
2022-12-22T02:35:17.304Z,26.55
2022-12-22T02:37:47.627Z,26.15
2022-12-22T02:40:15.022Z,27.30
2022-12-22T02:42:44.130Z,26.15
2022-12-22T02:45:16.760Z,26.33
2022-12-22T02:47:42.723Z,24.52
2022-12-22T02:50:11.758Z,25.58
2022-12-22T02:52:42.998Z,25.80
2022-12-22T02:55:04.002Z,26.25
2022-12-22T02:57:25.985Z,23.77
2022-12-22T02:59:46.600Z,25.70
2022-12-22T03:02:08.809Z,25.02
2022-12-22T03:04:29.584Z,28.50
2022-12-22T03:06:50.182Z,25.35
2022-12-22T03:09:10.569Z,25.45
2022-12-22T03:11:31.647Z,25.25
2022-12-22T03:13:52.301Z,23.65
2022-12-22T03:16:13.030Z,25.85
2022-12-22T03:18:35.177Z,24.30
2022-12-22T03:20:55.920Z,26.13
2022-12-22T03:23:23.264Z,23.42
2022-12-22T03:25:44.033Z,24.02
2022-12-22T03:27:47.449Z,23.08
2022-12-22T03:29:50.719Z,24.48
2022-12-22T03:31:54.187Z,22.88
2022-12-22T03:33:58.956Z,25.90
2022-12-22T03:36:04.300Z,23.27
2022-12-22T03:38:07.772Z,25.60
2022-12-22T03:40:11.596Z,24.13
2022-12-22T03:42:32.299Z,24.90
2022-12-22T03:44:52.940Z,23.70
2022-12-22T03:46:56.388Z,21.27
2022-12-22T03:49:11.849Z,22.02
2022-12-22T03:51:15.204Z,21.40
2022-12-22T03:53:18.498Z,22.73
2022-12-22T03:55:21.767Z,20.30
2022-12-22T03:57:25.084Z,22.60
2022-12-22T03:59:28.332Z,23.17
2022-12-22T04:01:33.309Z,21.75
2022-12-22T04:03:36.794Z,21.40
2022-12-22T04:05:41.562Z,20.27
2022-12-22T04:07:44.871Z,20.25
2022-12-22T04:10:01.989Z,21.25
2022-12-22T04:12:23.343Z,20.20
2022-12-22T04:14:33.432Z,21.88
2022-12-22T04:16:37.992Z,19.38
2022-12-22T04:18:41.380Z,19.00
2022-12-22T04:20:46.053Z,16.80
2022-12-22T04:22:49.600Z,15.43
2022-12-22T04:24:52.924Z,14.25
2022-12-22T04:26:56.237Z,13.10
2022-12-22T04:29:03.087Z,12.90
2022-12-22T04:31:06.733Z,12.88
2022-12-22T04:33:10.093Z,13.75
2022-12-22T04:35:13.725Z,13.88
2022-12-22T04:37:18.340Z,13.73
2022-12-22T04:39:21.991Z,14.95
2022-12-22T04:41:25.340Z,17.55
2022-12-22T04:43:28.686Z,16.33
2022-12-22T04:45:32.220Z,14.18
2022-12-22T04:47:35.737Z,14.25
2022-12-22T04:49:39.043Z,12.68
2022-12-22T04:51:42.534Z,14.60
2022-12-22T04:53:47.346Z,12.40
2022-12-22T04:55:52.362Z,11.10
2022-12-22T04:57:55.869Z,11.15
2022-12-22T04:59:59.149Z,10.93
2022-12-22T05:02:02.451Z,9.77
2022-12-22T05:04:07.169Z,7.60
2022-12-22T05:06:11.305Z,8.82
2022-12-22T05:08:14.731Z,8.70
2022-12-22T05:10:19.638Z,8.88
2022-12-22T05:12:40.353Z,9.77
2022-12-22T05:14:43.699Z,9.85
2022-12-22T05:16:47.148Z,8.52
2022-12-22T05:18:50.565Z,8.57
2022-12-22T05:20:53.956Z,8.13
2022-12-22T05:23:01.182Z,7.70
2022-12-22T05:25:04.884Z,7.22
2022-12-22T05:27:11.471Z,8.13
2022-12-22T05:29:14.793Z,7.30
2022-12-22T05:31:20.038Z,6.85
2022-12-22T05:33:23.549Z,9.07
2022-12-22T05:35:26.923Z,13.60
2022-12-22T05:37:33.657Z,12.75
2022-12-22T05:39:36.989Z,15.10
2022-12-22T05:41:40.346Z,13.20
2022-12-22T05:43:45.150Z,11.75
2022-12-22T05:45:48.984Z,14.15
2022-12-22T05:47:53.565Z,11.70
2022-12-22T05:49:56.844Z,11.63
2022-12-22T05:52:00.169Z,11.85
2022-12-22T05:54:03.538Z,11.45
2022-12-22T05:56:08.194Z,12.35
2022-12-22T05:58:11.458Z,9.48
2022-12-22T06:00:17.964Z,9.48
2022-12-22T06:02:21.536Z,11.75
2022-12-22T06:04:24.970Z,10.75
2022-12-22T06:06:28.747Z,11.38
2022-12-22T06:08:32.172Z,12.80
2022-12-22T06:10:35.575Z,12.73
2022-12-22T06:12:42.323Z,11.70
2022-12-22T06:14:48.598Z,11.95
2022-12-22T06:16:53.288Z,10.10
2022-12-22T06:18:56.680Z,11.32
2022-12-22T06:21:00.096Z,10.77
2022-12-22T06:23:03.672Z,11.50
2022-12-22T06:25:09.978Z,11.35
2022-12-22T06:27:17.207Z,9.55
2022-12-22T06:29:20.940Z,10.52
2022-12-22T06:31:24.490Z,11.77
2022-12-22T06:33:29.312Z,10.80
2022-12-22T06:35:32.889Z,9.75
2022-12-22T06:37:36.112Z,9.25
2022-12-22T06:39:39.485Z,9.50
2022-12-22T06:42:00.605Z,10.13
2022-12-22T06:44:04.177Z,10.57
2022-12-22T06:46:07.484Z,8.63
2022-12-22T06:48:12.403Z,8.88
2022-12-22T06:50:20.150Z,9.20
2022-12-22T06:52:23.512Z,8.95
2022-12-22T06:54:26.818Z,10.27
2022-12-22T06:56:32.964Z,9.38
2022-12-22T06:58:36.448Z,10.75
2022-12-22T07:00:39.938Z,9.45
2022-12-22T07:02:43.543Z,9.43
2022-12-22T07:04:46.933Z,9.63
2022-12-22T07:06:51.759Z,10.93
2022-12-22T07:08:55.113Z,10.27
2022-12-22T07:11:01.053Z,9.90
2022-12-22T07:13:19.672Z,10.52
2022-12-22T07:15:23.559Z,11.50
2022-12-22T07:17:27.063Z,10.80
2022-12-22T07:19:30.646Z,9.63
2022-12-22T07:21:34.066Z,10.18
2022-12-22T07:23:39.579Z,10.88
2022-12-22T07:25:43.253Z,13.10
2022-12-22T07:27:46.636Z,15.05
2022-12-22T07:29:49.940Z,14.30
2022-12-22T07:31:53.482Z,15.05
2022-12-22T07:33:56.848Z,15.07
2022-12-22T07:36:05.912Z,14.93
2022-12-22T07:38:09.153Z,13.25
2022-12-22T07:40:14.057Z,13.48
2022-12-22T07:42:34.856Z,12.80
2022-12-22T07:44:38.177Z,13.98
2022-12-22T07:46:41.853Z,16.20
2022-12-22T07:49:02.747Z,12.88
2022-12-22T07:51:08.090Z,11.65
2022-12-22T07:53:11.326Z,11.95
2022-12-22T07:55:16.968Z,12.55
2022-12-22T07:57:20.283Z,14.95
2022-12-22T07:59:23.882Z,11.70
2022-12-22T08:01:27.288Z,13.32
2022-12-22T08:03:30.693Z,12.73
2022-12-22T08:05:33.945Z,14.35
2022-12-22T08:07:41.505Z,14.15
2022-12-22T08:09:45.012Z,15.13
2022-12-22T08:11:50.510Z,13.73
2022-12-22T08:14:00.840Z,12.85
2022-12-22T08:16:05.597Z,12.93
2022-12-22T08:18:09.015Z,12.13
2022-12-22T08:20:13.022Z,12.75
2022-12-22T08:22:16.343Z,11.95
2022-12-22T08:24:20.112Z,12.05
2022-12-22T10:32:30.981Z,6.43
2022-12-22T10:34:36.215Z,6.73
2022-12-22T10:36:40.666Z,7.40
2022-12-22T10:39:00.195Z,8.10
2022-12-22T10:41:05.931Z,6.40
2022-12-22T10:43:09.423Z,6.17
2022-12-22T10:45:19.345Z,7.17
2022-12-22T10:47:25.921Z,7.30
2022-12-22T10:49:32.015Z,8.10
2022-12-22T11:45:24.008Z,7.97
2022-12-22T11:47:40.042Z,8.20
2022-12-22T12:20:24.224Z,10.60
2022-12-22T12:22:45.119Z,9.30
2022-12-22T12:25:00.976Z,11.67
2022-12-22T12:27:14.684Z,11.93
2022-12-22T12:29:20.797Z,12.17
2022-12-22T12:31:30.647Z,11.20
2022-12-22T12:33:40.114Z,12.73
2022-12-22T12:35:58.385Z,13.47
2022-12-22T12:38:32.292Z,11.70
2022-12-22T12:40:42.163Z,13.67
2022-12-22T12:42:47.812Z,12.33
2022-12-22T12:44:52.514Z,11.50
2022-12-22T12:47:07.458Z,13.80
2022-12-22T12:49:49.367Z,13.47
2022-12-22T12:51:52.761Z,14.27
2022-12-22T12:54:34.984Z,14.70
2022-12-22T12:56:57.134Z,12.07
2022-12-22T12:59:01.654Z,13.57
2022-12-22T13:01:07.029Z,12.43
2022-12-22T13:03:25.145Z,13.80
2022-12-22T13:05:37.947Z,13.60
2022-12-22T13:08:15.782Z,12.70
2022-12-22T13:10:23.300Z,14.03
2022-12-22T13:12:40.622Z,14.60
2022-12-22T13:15:00.616Z,16.23
2022-12-22T13:17:35.122Z,14.87
2022-12-22T13:38:33.767Z,13.73
2022-12-22T13:40:43.247Z,14.20
2022-12-22T13:42:50.193Z,15.00
2022-12-22T13:44:53.662Z,14.33
2022-12-22T13:47:03.256Z,12.10
2022-12-22T13:49:11.084Z,13.90
2022-12-22T13:51:20.011Z,14.77
2022-12-22T13:55:56.301Z,14.47
2022-12-22T13:58:06.456Z,14.63
2022-12-22T14:00:20.595Z,13.80
2022-12-22T14:02:24.356Z,14.90
2022-12-22T14:04:28.995Z,14.13
2022-12-22T14:06:34.672Z,12.77
2022-12-22T14:08:38.168Z,13.60
2022-12-22T14:10:45.443Z,16.23
2022-12-22T14:12:50.486Z,13.50
2022-12-22T14:22:10.289Z,21.35
2022-12-22T14:24:21.380Z,20.70
2022-12-22T14:26:30.965Z,23.70
2022-12-22T14:28:40.414Z,22.83
2022-12-22T14:30:48.838Z,19.20
2022-12-22T14:32:55.948Z,20.65
2022-12-22T14:34:59.537Z,17.15
2022-12-22T14:37:03.933Z,16.75
2022-12-22T14:39:11.524Z,16.50
2022-12-22T14:41:36.061Z,17.10
2022-12-22T14:43:41.062Z,18.27
2022-12-22T14:45:45.077Z,17.60
2022-12-22T14:47:49.111Z,16.85
2022-12-22T14:49:56.357Z,18.23
2022-12-22T14:52:07.517Z,16.60
2022-12-22T14:54:20.438Z,16.48
2022-12-22T14:56:24.673Z,17.50
2022-12-22T14:58:33.042Z,18.17
2022-12-22T15:00:40.553Z,15.30
2022-12-22T15:02:51.644Z,17.42
2022-12-22T15:05:16.337Z,18.67
2022-12-22T15:08:03.044Z,22.25
2022-12-22T15:10:14.677Z,17.23
2022-12-22T15:12:13.481Z,14.95
2022-12-22T15:14:19.920Z,15.93
2022-12-22T15:16:25.605Z,18.35
2022-12-22T15:18:30.002Z,18.40
2022-12-22T15:20:39.044Z,19.00
2022-12-22T15:22:42.968Z,21.42
2022-12-22T15:24:47.172Z,21.00
2022-12-22T15:26:54.528Z,20.58
2022-12-22T15:28:57.974Z,21.70
2022-12-22T15:31:02.714Z,19.38
2022-12-22T15:33:13.242Z,18.83
2022-12-22T15:35:23.179Z,23.08
2022-12-22T15:37:26.740Z,20.15
2022-12-22T15:39:30.056Z,18.45
2022-12-22T15:41:33.629Z,19.65
2022-12-22T15:46:00.854Z,23.50
2022-12-22T15:48:05.006Z,38.78
2022-12-22T15:50:16.894Z,44.45
2022-12-22T15:52:20.293Z,46.58
2022-12-22T15:54:24.359Z,44.85
2022-12-22T15:56:31.427Z,41.35
2022-12-22T15:58:37.462Z,50.72
2022-12-22T16:00:40.925Z,49.40
2022-12-22T16:02:44.922Z,58.97
2022-12-22T16:04:48.574Z,57.17
2022-12-22T16:06:53.766Z,66.88
2022-12-22T16:08:57.149Z,50.00
2022-12-22T16:11:01.467Z,40.25
2022-12-22T16:13:05.468Z,43.53
2022-12-22T16:15:14.808Z,39.13
2022-12-22T16:17:20.600Z,39.47
2022-12-22T16:19:24.048Z,40.25
2022-12-22T16:21:32.588Z,42.00
2022-12-22T16:23:38.022Z,34.88
2022-12-22T16:25:41.613Z,33.95
2022-12-22T16:27:47.944Z,31.85
2022-12-22T16:29:54.830Z,33.53
2022-12-22T16:31:59.454Z,36.75
2022-12-22T16:34:02.951Z,36.42
2022-12-22T16:36:06.656Z,32.45
2022-12-22T16:38:17.949Z,32.20
2022-12-22T16:40:23.726Z,29.83
2022-12-22T16:44:50.019Z,34.35
2022-12-22T16:46:53.956Z,32.80
2022-12-22T16:49:01.123Z,36.15
2022-12-22T16:51:04.916Z,25.48
2022-12-22T16:53:08.549Z,34.88
2022-12-22T16:55:16.138Z,36.30
2022-12-22T16:57:20.940Z,30.48
2022-12-22T16:59:25.727Z,29.30
2022-12-22T17:01:38.183Z,26.98
2022-12-22T17:03:43.281Z,38.00
2022-12-22T17:05:50.093Z,33.20
2022-12-22T17:07:54.473Z,30.23
2022-12-22T17:10:02.021Z,21.75
2022-12-22T17:12:07.304Z,27.27
2022-12-22T17:14:22.782Z,33.40
2022-12-22T17:16:26.284Z,35.28
2022-12-22T17:18:32.028Z,37.03
2022-12-22T17:20:35.328Z,37.35
2022-12-22T17:22:40.535Z,29.08
2022-12-22T17:24:43.865Z,34.45
2022-12-22T17:26:47.232Z,32.90
2022-12-22T17:28:52.038Z,28.25
2022-12-22T17:30:56.828Z,28.90
2022-12-22T17:33:00.228Z,42.35
2022-12-22T17:35:03.693Z,31.10
2022-12-22T17:37:11.726Z,30.40
2022-12-22T17:39:16.290Z,29.83
2022-12-22T17:41:19.682Z,27.65
2022-12-22T17:43:23.128Z,27.75
2022-12-22T17:45:26.672Z,30.63
2022-12-22T17:47:35.962Z,26.92
2022-12-22T17:49:44.956Z,26.38
2022-12-22T17:51:48.419Z,26.65
2022-12-22T17:53:52.638Z,24.52
2022-12-22T17:56:11.414Z,25.70
2022-12-22T17:58:16.022Z,23.33
2022-12-22T18:00:21.969Z,25.17
2022-12-22T18:02:26.237Z,24.35
2022-12-22T18:04:31.249Z,23.85
2022-12-22T18:06:36.778Z,23.83
2022-12-22T18:08:40.224Z,24.60
2022-12-22T18:10:43.877Z,23.00
2022-12-22T18:12:47.420Z,19.70
2022-12-22T18:14:52.400Z,23.77
2022-12-22T18:16:55.736Z,19.92
2022-12-22T18:18:59.098Z,21.45
2022-12-22T18:21:07.433Z,21.45
2022-12-22T18:23:17.418Z,20.80
2022-12-22T18:25:23.780Z,20.75
2022-12-22T18:27:27.345Z,22.92
2022-12-22T18:29:30.794Z,23.40
2022-12-22T18:31:34.252Z,24.50
2022-12-22T18:33:37.522Z,24.98
2022-12-22T18:35:42.249Z,27.77
2022-12-22T18:37:47.175Z,26.58
2022-12-22T18:39:50.639Z,26.15
2022-12-22T18:41:54.838Z,26.65
2022-12-22T18:43:58.431Z,23.70
2022-12-22T18:46:01.862Z,24.00
2022-12-22T18:48:05.604Z,25.05
2022-12-22T18:50:16.542Z,22.55
2022-12-22T18:52:22.354Z,20.63
2022-12-22T18:54:36.764Z,17.25
2022-12-22T18:56:40.390Z,17.55
2022-12-22T18:58:44.248Z,21.00
2022-12-22T19:00:48.074Z,18.70
2022-12-22T19:02:54.808Z,20.40
2022-12-22T19:04:58.309Z,20.05
2022-12-22T19:07:01.915Z,19.75
2022-12-22T19:09:05.498Z,24.60
2022-12-22T19:11:13.045Z,23.95
2022-12-22T19:13:28.058Z,21.73
2022-12-22T19:15:32.924Z,21.50
2022-12-22T19:17:36.294Z,20.98
2022-12-22T19:19:39.805Z,19.05
2022-12-22T19:21:43.268Z,18.58
2022-12-22T19:23:47.203Z,15.63
2022-12-22T19:25:53.169Z,16.13
2022-12-22T19:28:04.297Z,15.35
2022-12-22T19:30:14.859Z,16.35
2022-12-22T19:32:25.608Z,16.88
2022-12-22T19:34:29.128Z,16.15
2022-12-22T19:36:34.659Z,15.27
2022-12-22T19:38:38.381Z,15.93
2022-12-22T19:40:41.896Z,16.92
2022-12-22T19:42:47.293Z,14.85
2022-12-22T19:44:52.226Z,14.95
2022-12-22T19:46:57.193Z,12.88
2022-12-22T19:49:00.647Z,12.15
2022-12-22T19:51:04.417Z,11.40
2022-12-22T19:53:07.703Z,11.35
2022-12-22T19:55:11.744Z,10.40
2022-12-22T19:57:19.486Z,11.25
2022-12-22T19:59:32.364Z,10.93
2022-12-22T20:01:40.714Z,10.95
2022-12-22T20:03:44.372Z,11.77
2022-12-22T20:05:48.000Z,10.50
2022-12-22T20:07:52.271Z,10.23
2022-12-22T20:09:55.697Z,11.10
2022-12-22T20:11:58.988Z,11.00
2022-12-22T20:14:02.405Z,11.02
2022-12-22T20:16:06.252Z,11.98
2022-12-22T20:18:19.955Z,11.15
2022-12-22T20:20:25.479Z,8.80
2022-12-22T20:22:29.264Z,11.90
2022-12-22T20:24:33.026Z,10.70
2022-12-22T20:26:36.699Z,10.98
2022-12-22T20:28:44.384Z,11.13
2022-12-22T20:30:49.924Z,11.73
2022-12-22T20:32:54.585Z,10.40
2022-12-22T20:34:59.414Z,10.45
2022-12-22T20:37:03.235Z,10.55
2022-12-22T20:39:13.698Z,9.85
2022-12-22T20:41:17.064Z,10.20
2022-12-22T20:43:22.944Z,13.10
2022-12-22T20:45:30.957Z,10.48
2022-12-22T20:47:34.840Z,13.30
2022-12-22T20:49:38.252Z,10.88
2022-12-22T20:51:43.085Z,13.80
2022-12-22T20:53:47.781Z,11.38
2022-12-22T20:55:51.586Z,13.68
2022-12-22T20:57:55.063Z,12.05
2022-12-22T20:59:58.408Z,12.30
2022-12-22T21:02:01.993Z,11.70
2022-12-22T21:04:05.440Z,12.45
2022-12-22T21:06:24.421Z,12.10
2022-12-22T21:08:29.359Z,12.65
2022-12-22T21:10:33.359Z,11.02
2022-12-22T21:12:37.679Z,12.45
2022-12-22T21:14:41.151Z,12.25
2022-12-22T21:16:45.216Z,12.48
2022-12-22T21:18:48.585Z,11.13
2022-12-22T21:20:53.280Z,11.65
2022-12-22T21:22:56.682Z,10.75
2022-12-22T21:25:01.669Z,11.13
2022-12-22T21:27:07.856Z,11.38
2022-12-22T21:29:17.256Z,11.30
2022-12-22T21:31:20.753Z,12.57
2022-12-22T21:33:24.615Z,11.68
2022-12-22T21:35:32.486Z,12.73
2022-12-22T21:37:35.991Z,12.30
2022-12-22T21:39:42.628Z,11.18
2022-12-22T21:42:04.757Z,12.73
2022-12-22T21:44:08.500Z,10.07
2022-12-22T21:46:14.153Z,11.15
2022-12-22T21:48:19.399Z,11.45
2022-12-22T21:50:24.746Z,12.35
2022-12-22T21:52:28.087Z,11.27
2022-12-22T21:54:31.498Z,11.48
2022-12-22T21:56:34.874Z,13.15
2022-12-22T21:58:39.632Z,12.00
2022-12-22T22:00:48.365Z,12.00
2022-12-22T22:02:52.795Z,11.85
2022-12-22T22:04:56.119Z,10.32
2022-12-22T22:06:59.462Z,11.98
2022-12-22T22:09:04.757Z,12.38
2022-12-22T22:11:18.897Z,11.10
2022-12-22T22:13:22.310Z,9.98
2022-12-22T22:15:28.999Z,10.95
2022-12-22T22:17:32.493Z,10.32
2022-12-22T22:19:36.049Z,10.00
2022-12-22T22:21:39.437Z,12.20
2022-12-22T22:23:42.906Z,10.85
2022-12-22T22:25:46.144Z,10.38
2022-12-22T22:27:50.375Z,10.07
2022-12-22T22:29:53.922Z,10.75
2022-12-22T22:31:58.581Z,11.73
2022-12-22T22:34:01.880Z,9.98
2022-12-22T22:36:07.173Z,9.25
2022-12-22T22:38:12.411Z,9.40
2022-12-22T22:40:16.495Z,8.93
2022-12-22T22:42:19.910Z,9.15
2022-12-22T22:44:23.916Z,9.30
2022-12-22T22:46:27.474Z,9.57
2022-12-22T22:48:32.239Z,9.23
2022-12-22T22:50:35.631Z,9.18
2022-12-22T22:52:39.507Z,9.57
2022-12-22T22:54:42.865Z,8.70
2022-12-22T22:56:46.238Z,10.20
2022-12-22T22:58:50.631Z,9.23
2022-12-22T23:00:54.027Z,8.75
2022-12-22T23:02:57.471Z,9.82
2022-12-22T23:05:02.264Z,9.20
2022-12-22T23:07:05.654Z,10.40
2022-12-22T23:09:09.276Z,9.52
2022-12-22T23:11:15.698Z,8.27
2022-12-22T23:13:19.015Z,8.75
2022-12-22T23:15:22.408Z,8.40
2022-12-22T23:17:25.984Z,8.20
2022-12-22T23:19:29.542Z,9.00
2022-12-22T23:21:34.313Z,7.85
2022-12-22T23:23:37.816Z,8.85
2022-12-22T23:25:43.857Z,8.13
2022-12-22T23:27:47.136Z,7.10
2022-12-22T23:29:50.461Z,7.90
2022-12-22T23:31:53.886Z,7.70
2022-12-22T23:33:57.927Z,8.77
2022-12-22T23:36:01.384Z,7.22
2022-12-22T23:38:08.698Z,7.40
2022-12-22T23:42:36.536Z,7.13
2022-12-22T23:44:39.874Z,6.32
2022-12-22T23:46:43.279Z,7.13
2022-12-22T23:48:51.069Z,7.53
2022-12-22T23:50:54.864Z,6.53
2022-12-22T23:52:58.469Z,8.35
2022-12-22T23:55:03.291Z,7.80
2022-12-22T23:57:06.685Z,7.90
2022-12-22T23:59:10.078Z,9.05
